Breckenridge, Illinois
Current Conditions -  °F | °C
As of 7:52 AM on Friday 28 Nov 2014 (Local Time) from KSPI Reporting Station
Scattered Clouds Scattered Clouds  
Wind Chill: -11°   Ceiling: Unl
Heat Index: -4°   Visibility: 10mi
Dew Point: -8°   Wind: 13mph
Humidity: 77%   Direction: 150°SSE
Pressure: 30.23"   Gusts: NA
Location:  39.7312°N, 89.5322°W
Report Text: KSPI 281352Z 15011KT 10SM SCT120 M04/M08 A3023 RMK AO2 SLP245 T10441078
Loading
Personal Weather Stations






























Interactive Weather Map New forecast layout! Learn more

10-Day Weather Forecast

Advertisements
Track Severe Weather on mobile